sensor_id;sensor_type;location;lat;lon;timestamp;pressure;altitude;pressure_sealevel;temperature
84287;BMP280;74445;55.252;61.092;2024-02-15T00:00:22;138146.00;;;-28.97
84287;BMP280;74445;55.252;61.092;2024-02-15T00:02:49;138142.47;;;-28.99
84287;BMP280;74445;55.252;61.092;2024-02-15T00:05:15;138151.94;;;-28.95
84287;BMP280;74445;55.252;61.092;2024-02-15T00:07:42;138131.84;;;-29.03
84287;BMP280;74445;55.252;61.092;2024-02-15T00:10:10;138122.41;;;-29.07
84287;BMP280;74445;55.252;61.092;2024-02-15T00:12:38;138116.50;;;-29.10
84287;BMP280;74445;55.252;61.092;2024-02-15T00:15:05;138125.97;;;-29.06
84287;BMP280;74445;55.252;61.092;2024-02-15T00:17:33;138128.31;;;-29.05
84287;BMP280;74445;55.252;61.092;2024-02-15T00:20:03;138107.06;;;-29.14
84287;BMP280;74445;55.252;61.092;2024-02-15T00:22:36;138116.50;;;-29.10
84287;BMP280;74445;55.252;61.092;2024-02-15T00:25:04;138121.22;;;-29.08
84287;BMP280;74445;55.252;61.092;2024-02-15T00:27:32;138129.47;;;-29.04
84287;BMP280;74445;55.252;61.092;2024-02-15T00:30:03;138147.22;;;-28.97
84287;BMP280;74445;55.252;61.092;2024-02-15T00:32:31;138166.09;;;-28.89
84287;BMP280;74445;55.252;61.092;2024-02-15T00:34:58;138168.47;;;-28.88
84287;BMP280;74445;55.252;61.092;2024-02-15T00:37:25;138171.97;;;-28.86
84287;BMP280;74445;55.252;61.092;2024-02-15T00:39:51;138180.22;;;-28.83
84287;BMP280;74445;55.252;61.092;2024-02-15T00:42:18;138189.66;;;-28.79
84287;BMP280;74445;55.252;61.092;2024-02-15T00:44:45;138186.09;;;-28.81
84287;BMP280;74445;55.252;61.092;2024-02-15T00:47:13;138173.19;;;-28.86
84287;BMP280;74445;55.252;61.092;2024-02-15T00:49:41;138166.09;;;-28.89
84287;BMP280;74445;55.252;61.092;2024-02-15T00:52:08;138177.84;;;-28.84
84287;BMP280;74445;55.252;61.092;2024-02-15T00:54:34;138190.81;;;-28.79
84287;BMP280;74445;55.252;61.092;2024-02-15T00:57:01;138187.31;;;-28.80
84287;BMP280;74445;55.252;61.092;2024-02-15T00:59:27;138181.38;;;-28.83
84287;BMP280;74445;55.252;61.092;2024-02-15T01:01:54;138173.19;;;-28.86
84287;BMP280;74445;55.252;61.092;2024-02-15T01:04:22;138162.53;;;-28.90
84287;BMP280;74445;55.252;61.092;2024-02-15T01:09:25;138149.56;;;-28.96
84287;BMP280;74445;55.252;61.092;2024-02-15T01:11:51;138166.09;;;-28.89
84287;BMP280;74445;55.252;61.092;2024-02-15T01:14:17;138150.72;;;-28.95
84287;BMP280;74445;55.252;61.092;2024-02-15T01:16:44;138138.91;;;-29.00
84287;BMP280;74445;55.252;61.092;2024-02-15T01:19:10;138124.75;;;-29.06
84287;BMP280;74445;55.252;61.092;2024-02-15T01:21:37;138097.63;;;-29.18
84287;BMP280;74445;55.252;61.092;2024-02-15T01:24:04;138076.38;;;-29.27
84287;BMP280;74445;55.252;61.092;2024-02-15T01:26:33;138066.94;;;-29.31
84287;BMP280;74445;55.252;61.092;2024-02-15T01:29:00;138066.94;;;-29.31
84287;BMP280;74445;55.252;61.092;2024-02-15T01:31:29;138050.41;;;-29.38
84287;BMP280;74445;55.252;61.092;2024-02-15T01:33:55;138039.88;;;-29.42
84287;BMP280;74445;55.252;61.092;2024-02-15T01:36:23;138036.31;;;-29.44
84287;BMP280;74445;55.252;61.092;2024-02-15T01:38:51;138031.59;;;-29.46
84287;BMP280;74445;55.252;61.092;2024-02-15T01:41:17;138032.78;;;-29.45
84287;BMP280;74445;55.252;61.092;2024-02-15T01:43:44;138024.50;;;-29.49
84287;BMP280;74445;55.252;61.092;2024-02-15T01:46:11;138018.63;;;-29.51
84287;BMP280;74445;55.252;61.092;2024-02-15T01:48:41;138012.72;;;-29.54
84287;BMP280;74445;55.252;61.092;2024-02-15T01:51:10;138003.28;;;-29.58
84287;BMP280;74445;55.252;61.092;2024-02-15T01:53:38;138035.16;;;-29.44
84287;BMP280;74445;55.252;61.092;2024-02-15T01:56:07;138030.44;;;-29.46
84287;BMP280;74445;55.252;61.092;2024-02-15T01:58:34;138035.16;;;-29.44
84287;BMP280;74445;55.252;61.092;2024-02-15T02:01:02;138015.06;;;-29.53
84287;BMP280;74445;55.252;61.092;2024-02-15T02:03:29;138003.28;;;-29.58
84287;BMP280;74445;55.252;61.092;2024-02-15T02:05:56;137991.47;;;-29.63
84287;BMP280;74445;55.252;61.092;2024-02-15T02:08:24;137972.59;;;-29.71
84287;BMP280;74445;55.252;61.092;2024-02-15T02:10:52;137947.84;;;-29.81
84287;BMP280;74445;55.252;61.092;2024-02-15T02:13:21;137923.06;;;-29.92
84287;BMP280;74445;55.252;61.092;2024-02-15T02:15:47;137901.88;;;-30.00
84287;BMP280;74445;55.252;61.092;2024-02-15T02:18:14;137932.50;;;-29.88
84287;BMP280;74445;55.252;61.092;2024-02-15T02:20:40;137903.06;;;-30.00
84287;BMP280;74445;55.252;61.092;2024-02-15T02:23:09;137890.09;;;-30.05
84287;BMP280;74445;55.252;61.092;2024-02-15T02:25:38;137901.88;;;-30.00
84287;BMP280;74445;55.252;61.092;2024-02-15T02:28:06;137893.66;;;-30.04
84287;BMP280;74445;55.252;61.092;2024-02-15T02:30:33;137894.81;;;-30.03
84287;BMP280;74445;55.252;61.092;2024-02-15T02:33:01;137908.91;;;-29.98
84287;BMP280;74445;55.252;61.092;2024-02-15T02:35:28;137906.59;;;-29.98
84287;BMP280;74445;55.252;61.092;2024-02-15T02:37:56;137908.91;;;-29.98
84287;BMP280;74445;55.252;61.092;2024-02-15T02:40:23;137903.06;;;-30.00
84287;BMP280;74445;55.252;61.092;2024-02-15T02:42:52;137900.72;;;-30.01
84287;BMP280;74445;55.252;61.092;2024-02-15T02:45:20;137921.91;;;-29.92
84287;BMP280;74445;55.252;61.092;2024-02-15T02:47:49;137947.84;;;-29.81
84287;BMP280;74445;55.252;61.092;2024-02-15T02:50:16;137947.84;;;-29.81
84287;BMP280;74445;55.252;61.092;2024-02-15T02:52:43;137972.59;;;-29.71
84287;BMP280;74445;55.252;61.092;2024-02-15T02:55:10;137986.75;;;-29.65
84287;BMP280;74445;55.252;61.092;2024-02-15T02:57:38;138008.00;;;-29.56
84287;BMP280;74445;55.252;61.092;2024-02-15T03:00:09;138037.50;;;-29.43
84287;BMP280;74445;55.252;61.092;2024-02-15T03:02:40;138022.16;;;-29.50
84287;BMP280;74445;55.252;61.092;2024-02-15T03:05:07;138035.16;;;-29.44
84287;BMP280;74445;55.252;61.092;2024-02-15T03:07:34;138017.44;;;-29.52
84287;BMP280;74445;55.252;61.092;2024-02-15T03:10:02;138003.28;;;-29.58
84287;BMP280;74445;55.252;61.092;2024-02-15T03:12:35;137999.75;;;-29.59
84287;BMP280;74445;55.252;61.092;2024-02-15T03:15:08;138012.72;;;-29.54
84287;BMP280;74445;55.252;61.092;2024-02-15T03:17:38;138012.72;;;-29.54
84287;BMP280;74445;55.252;61.092;2024-02-15T03:20:05;138036.31;;;-29.44
84287;BMP280;74445;55.252;61.092;2024-02-15T03:22:37;138056.34;;;-29.35
84287;BMP280;74445;55.252;61.092;2024-02-15T03:25:05;138057.50;;;-29.35
84287;BMP280;74445;55.252;61.092;2024-02-15T03:27:35;138089.34;;;-29.21
84287;BMP280;74445;55.252;61.092;2024-02-15T03:30:04;138100.00;;;-29.17
84287;BMP280;74445;55.252;61.092;2024-02-15T03:32:33;138108.22;;;-29.13
84287;BMP280;74445;55.252;61.092;2024-02-15T03:34:59;138107.06;;;-29.14
84287;BMP280;74445;55.252;61.092;2024-02-15T03:37:27;138124.75;;;-29.06
84287;BMP280;74445;55.252;61.092;2024-02-15T03:39:53;138153.09;;;-28.94
84287;BMP280;74445;55.252;61.092;2024-02-15T03:42:20;138288.88;;;-28.37
84287;BMP280;74445;55.252;61.092;2024-02-15T03:44:46;138570.06;;;-27.19
84287;BMP280;74445;55.252;61.092;2024-02-15T03:47:14;138902.53;;;-25.79
84287;BMP280;74445;55.252;61.092;2024-02-15T03:49:42;139235.56;;;-24.39
84287;BMP280;74445;55.252;61.092;2024-02-15T03:52:09;139535.84;;;-23.13
84287;BMP280;74445;55.252;61.092;2024-02-15T03:54:36;139813.88;;;-21.96
84287;BMP280;74445;55.252;61.092;2024-02-15T03:57:03;140062.53;;;-20.92
84287;BMP280;74445;55.252;61.092;2024-02-15T03:59:32;140324.47;;;-19.83
84287;BMP280;74445;55.252;61.092;2024-02-15T04:02:01;140566.50;;;-18.82
84287;BMP280;74445;55.252;61.092;2024-02-15T04:04:29;140811.16;;;-17.80
84287;BMP280;74445;55.252;61.092;2024-02-15T04:06:58;141040.53;;;-16.84
84287;BMP280;74445;55.252;61.092;2024-02-15T04:09:24;141237.81;;;-16.02
84287;BMP280;74445;55.252;61.092;2024-02-15T04:11:51;141420.84;;;-15.26
84287;BMP280;74445;55.252;61.092;2024-02-15T04:14:19;141586.16;;;-14.57
84287;BMP280;74445;55.252;61.092;2024-02-15T04:16:46;141763.50;;;-13.83
84287;BMP280;74445;55.252;61.092;2024-02-15T04:19:12;141941.00;;;-13.10
84287;BMP280;74445;55.252;61.092;2024-02-15T04:21:39;142119.78;;;-12.35
84287;BMP280;74445;55.252;61.092;2024-02-15T04:24:08;142284.31;;;-11.67
84287;BMP280;74445;55.252;61.092;2024-02-15T04:26:34;142442.91;;;-11.02
84287;BMP280;74445;55.252;61.092;2024-02-15T04:29:04;142608.88;;;-10.33
84287;BMP280;74445;55.252;61.092;2024-02-15T04:31:30;142780.88;;;-9.62
84287;BMP280;74445;55.252;61.092;2024-02-15T04:33:58;142965.13;;;-8.85
84287;BMP280;74445;55.252;61.092;2024-02-15T04:36:25;143096.44;;;-8.31
84287;BMP280;74445;55.252;61.092;2024-02-15T04:38:52;143274.81;;;-7.57
84287;BMP280;74445;55.252;61.092;2024-02-15T04:41:21;143389.38;;;-7.10
84287;BMP280;74445;55.252;61.092;2024-02-15T04:43:49;143469.03;;;-6.77
84287;BMP280;74445;55.252;61.092;2024-02-15T04:46:16;143595.78;;;-6.25
84287;BMP280;74445;55.252;61.092;2024-02-15T04:48:42;143691.19;;;-5.86
84287;BMP280;74445;55.252;61.092;2024-02-15T04:51:09;143752.75;;;-5.60
84287;BMP280;74445;55.252;61.092;2024-02-15T04:53:36;143934.03;;;-4.86
84287;BMP280;74445;55.252;61.092;2024-02-15T04:56:05;144028.34;;;-4.47
84287;BMP280;74445;55.252;61.092;2024-02-15T04:58:39;144097.25;;;-4.18
84287;BMP280;74445;55.252;61.092;2024-02-15T05:01:14;144213.41;;;-3.71
84287;BMP280;74445;55.252;61.092;2024-02-15T05:03:44;144260.59;;;-3.51
84287;BMP280;74445;55.252;61.092;2024-02-15T05:06:11;144301.75;;;-3.34
84287;BMP280;74445;55.252;61.092;2024-02-15T05:08:39;144387.75;;;-2.99
84287;BMP280;74445;55.252;61.092;2024-02-15T05:11:09;144533.03;;;-2.39
84287;BMP280;74445;55.252;61.092;2024-02-15T05:13:42;144659.06;;;-1.87
84287;BMP280;74445;55.252;61.092;2024-02-15T05:16:09;144670.00;;;-1.83
84287;BMP280;74445;55.252;61.092;2024-02-15T05:18:35;144710.00;;;-1.66
84287;BMP280;74445;55.252;61.092;2024-02-15T05:21:02;144740.31;;;-1.54
84287;BMP280;74445;55.252;61.092;2024-02-15T05:23:29;144697.88;;;-1.71
84287;BMP280;74445;55.252;61.092;2024-02-15T05:25:56;144754.88;;;-1.48
84287;BMP280;74445;55.252;61.092;2024-02-15T05:28:22;144796.09;;;-1.31
84287;BMP280;74445;55.252;61.092;2024-02-15T05:31:09;144935.56;;;-0.74
84287;BMP280;74445;55.252;61.092;2024-02-15T05:33:37;144907.66;;;-0.85
84287;BMP280;74445;55.252;61.092;2024-02-15T05:36:08;144908.88;;;-0.85
84287;BMP280;74445;55.252;61.092;2024-02-15T05:38:35;145064.22;;;-0.21
84287;BMP280;74445;55.252;61.092;2024-02-15T05:41:01;145104.25;;;-0.04
84287;BMP280;74445;55.252;61.092;2024-02-15T05:43:28;145219.56;;;0.43
84287;BMP280;74445;55.252;61.092;2024-02-15T05:45:57;145174.66;;;0.24
84287;BMP280;74445;55.252;61.092;2024-02-15T05:48:26;145158.84;;;0.18
84287;BMP280;74445;55.252;61.092;2024-02-15T05:50:54;145079.97;;;-0.14
84287;BMP280;74445;55.252;61.092;2024-02-15T05:53:21;145045.97;;;-0.28
84287;BMP280;74445;55.252;61.092;2024-02-15T05:55:47;144925.88;;;-0.78
84287;BMP280;74445;55.252;61.092;2024-02-15T05:58:15;144947.69;;;-0.69
84287;BMP280;74445;55.252;61.092;2024-02-15T06:00:46;145086.06;;;-0.12
84287;BMP280;74445;55.252;61.092;2024-02-15T06:03:17;145061.78;;;-0.22
84287;BMP280;74445;55.252;61.092;2024-02-15T06:05:43;145037.50;;;-0.32
84287;BMP280;74445;55.252;61.092;2024-02-15T06:08:11;145096.97;;;-0.07
84287;BMP280;74445;55.252;61.092;2024-02-15T06:10:40;145032.66;;;-0.34
84287;BMP280;74445;55.252;61.092;2024-02-15T06:13:07;145056.94;;;-0.24
84287;BMP280;74445;55.252;61.092;2024-02-15T06:15:36;144947.69;;;-0.69
84287;BMP280;74445;55.252;61.092;2024-02-15T06:18:02;144956.19;;;-0.65
84287;BMP280;74445;55.252;61.092;2024-02-15T06:20:36;144988.97;;;-0.52
84287;BMP280;74445;55.252;61.092;2024-02-15T06:23:04;144810.59;;;-1.25
84287;BMP280;74445;55.252;61.092;2024-02-15T06:25:34;144826.41;;;-1.19
84287;BMP280;74445;55.252;61.092;2024-02-15T06:28:01;144954.97;;;-0.66
84287;BMP280;74445;55.252;61.092;2024-02-15T06:30:39;144953.75;;;-0.66
84287;BMP280;74445;55.252;61.092;2024-02-15T06:33:24;144870.06;;;-1.01
84287;BMP280;74445;55.252;61.092;2024-02-15T06:36:10;145041.13;;;-0.30
84287;BMP280;74445;55.252;61.092;2024-02-15T06:38:55;145094.53;;;-0.08
84287;BMP280;74445;55.252;61.092;2024-02-15T06:41:40;144900.38;;;-0.88
84287;BMP280;74445;55.252;61.092;2024-02-15T06:44:06;144834.88;;;-1.15
84287;BMP280;74445;55.252;61.092;2024-02-15T06:46:34;144889.47;;;-0.93
84287;BMP280;74445;55.252;61.092;2024-02-15T06:49:00;144794.88;;;-1.31
84287;BMP280;74445;55.252;61.092;2024-02-15T06:51:28;144912.50;;;-0.83
84287;BMP280;74445;55.252;61.092;2024-02-15T06:53:54;144837.28;;;-1.14
84287;BMP280;74445;55.252;61.092;2024-02-15T06:56:22;144855.50;;;-1.07
84287;BMP280;74445;55.252;61.092;2024-02-15T06:58:50;144816.69;;;-1.23
84287;BMP280;74445;55.252;61.092;2024-02-15T07:01:16;144764.56;;;-1.44
84287;BMP280;74445;55.252;61.092;2024-02-15T07:03:44;144853.09;;;-1.08
84287;BMP280;74445;55.252;61.092;2024-02-15T07:06:11;144817.88;;;-1.22
84287;BMP280;74445;55.252;61.092;2024-02-15T07:08:42;144796.09;;;-1.31
84287;BMP280;74445;55.252;61.092;2024-02-15T07:11:09;144695.44;;;-1.72
84287;BMP280;74445;55.252;61.092;2024-02-15T07:13:35;144672.44;;;-1.82
84287;BMP280;74445;55.252;61.092;2024-02-15T07:16:07;144700.28;;;-1.70
84287;BMP280;74445;55.252;61.092;2024-02-15T07:18:34;144703.94;;;-1.69
84287;BMP280;74445;55.252;61.092;2024-02-15T07:21:00;144562.13;;;-2.27
84287;BMP280;74445;55.252;61.092;2024-02-15T07:23:27;144605.75;;;-2.09
84287;BMP280;74445;55.252;61.092;2024-02-15T07:25:55;144471.28;;;-2.64
84287;BMP280;74445;55.252;61.092;2024-02-15T07:28:22;144428.91;;;-2.82
84287;BMP280;74445;55.252;61.092;2024-02-15T07:30:51;144497.94;;;-2.53
84287;BMP280;74445;55.252;61.092;2024-02-15T07:33:18;144414.38;;;-2.88
84287;BMP280;74445;55.252;61.092;2024-02-15T07:35:46;144493.09;;;-2.55
84287;BMP280;74445;55.252;61.092;2024-02-15T07:38:14;144525.78;;;-2.42
84287;BMP280;74445;55.252;61.092;2024-02-15T07:40:41;144611.84;;;-2.07
84287;BMP280;74445;55.252;61.092;2024-02-15T07:43:09;144474.94;;;-2.63
84287;BMP280;74445;55.252;61.092;2024-02-15T07:45:36;144447.06;;;-2.74
84287;BMP280;74445;55.252;61.092;2024-02-15T07:48:04;144270.28;;;-3.47
84287;BMP280;74445;55.252;61.092;2024-02-15T07:50:31;144231.53;;;-3.63
84287;BMP280;74445;55.252;61.092;2024-02-15T07:52:57;144227.94;;;-3.65
84287;BMP280;74445;55.252;61.092;2024-02-15T07:55:24;144311.44;;;-3.30
84287;BMP280;74445;55.252;61.092;2024-02-15T07:57:50;144221.88;;;-3.67
84287;BMP280;74445;55.252;61.092;2024-02-15T08:00:19;144186.78;;;-3.81
84287;BMP280;74445;55.252;61.092;2024-02-15T08:02:47;144152.91;;;-3.95
84287;BMP280;74445;55.252;61.092;2024-02-15T08:05:14;144135.97;;;-4.02
84287;BMP280;74445;55.252;61.092;2024-02-15T08:07:42;143854.25;;;-5.18
84287;BMP280;74445;55.252;61.092;2024-02-15T08:10:10;143594.59;;;-6.25
84287;BMP280;74445;55.252;61.092;2024-02-15T08:12:40;143247.09;;;-7.69
84287;BMP280;74445;55.252;61.092;2024-02-15T08:15:08;143061.50;;;-8.46
84287;BMP280;74445;55.252;61.092;2024-02-15T08:17:40;142806.16;;;-9.51
84287;BMP280;74445;55.252;61.092;2024-02-15T08:20:07;142583.59;;;-10.43
84287;BMP280;74445;55.252;61.092;2024-02-15T08:22:35;142378.00;;;-11.28
84287;BMP280;74445;55.252;61.092;2024-02-15T08:25:07;142296.34;;;-11.62
84287;BMP280;74445;55.252;61.092;2024-02-15T08:27:40;142136.59;;;-12.29
84287;BMP280;74445;55.252;61.092;2024-02-15T08:30:11;142057.34;;;-12.61
84287;BMP280;74445;55.252;61.092;2024-02-15T08:32:40;141945.81;;;-13.08
84287;BMP280;74445;55.252;61.092;2024-02-15T08:35:08;141789.88;;;-13.72
84287;BMP280;74445;55.252;61.092;2024-02-15T08:37:35;141801.88;;;-13.67
84287;BMP280;74445;55.252;61.092;2024-02-15T08:40:02;141735.91;;;-13.95
84287;BMP280;74445;55.252;61.092;2024-02-15T08:42:29;141672.44;;;-14.21
84287;BMP280;74445;55.252;61.092;2024-02-15T08:44:56;141676.06;;;-14.20
84287;BMP280;74445;55.252;61.092;2024-02-15T08:47:23;141662.84;;;-14.25
84287;BMP280;74445;55.252;61.092;2024-02-15T08:49:51;141601.75;;;-14.51
84287;BMP280;74445;55.252;61.092;2024-02-15T08:52:17;141571.78;;;-14.63
84287;BMP280;74445;55.252;61.092;2024-02-15T08:54:44;141571.78;;;-14.63
84287;BMP280;74445;55.252;61.092;2024-02-15T08:57:10;141558.63;;;-14.69
84287;BMP280;74445;55.252;61.092;2024-02-15T08:59:39;141505.91;;;-14.90
84287;BMP280;74445;55.252;61.092;2024-02-15T09:02:05;141463.97;;;-15.08
84287;BMP280;74445;55.252;61.092;2024-02-15T09:04:32;141440.03;;;-15.18
84287;BMP280;74445;55.252;61.092;2024-02-15T09:07:00;141394.63;;;-15.37
84287;BMP280;74445;55.252;61.092;2024-02-15T09:09:32;141351.50;;;-15.55
84287;BMP280;74445;55.252;61.092;2024-02-15T09:12:01;141374.25;;;-15.45
84287;BMP280;74445;55.252;61.092;2024-02-15T09:14:35;141375.47;;;-15.45
84287;BMP280;74445;55.252;61.092;2024-02-15T09:17:06;141323.97;;;-15.66
84287;BMP280;74445;55.252;61.092;2024-02-15T09:19:35;141265.34;;;-15.91
84287;BMP280;74445;55.252;61.092;2024-02-15T09:22:04;141262.94;;;-15.92
84287;BMP280;74445;55.252;61.092;2024-02-15T09:24:37;141219.88;;;-16.09
84287;BMP280;74445;55.252;61.092;2024-02-15T09:27:04;141182.78;;;-16.25
84287;BMP280;74445;55.252;61.092;2024-02-15T09:29:31;141154.09;;;-16.37
84287;BMP280;74445;55.252;61.092;2024-02-15T09:32:00;141119.44;;;-16.51
84287;BMP280;74445;55.252;61.092;2024-02-15T09:34:30;141041.75;;;-16.84
84287;BMP280;74445;55.252;61.092;2024-02-15T09:36:57;141010.66;;;-16.97
84287;BMP280;74445;55.252;61.092;2024-02-15T09:39:25;141004.66;;;-16.99
84287;BMP280;74445;55.252;61.092;2024-02-15T09:41:51;140946.13;;;-17.23
84287;BMP280;74445;55.252;61.092;2024-02-15T09:44:24;140932.97;;;-17.29
84287;BMP280;74445;55.252;61.092;2024-02-15T09:47:02;140922.28;;;-17.33
84287;BMP280;74445;55.252;61.092;2024-02-15T09:49:33;140891.22;;;-17.46
84287;BMP280;74445;55.252;61.092;2024-02-15T09:52:03;140887.59;;;-17.48
84287;BMP280;74445;55.252;61.092;2024-02-15T09:54:33;140873.25;;;-17.54
84287;BMP280;74445;55.252;61.092;2024-02-15T09:57:01;140802.81;;;-17.83
84287;BMP280;74445;55.252;61.092;2024-02-15T09:59:30;140752.66;;;-18.04
84287;BMP280;74445;55.252;61.092;2024-02-15T10:01:59;140751.47;;;-18.05
84287;BMP280;74445;55.252;61.092;2024-02-15T10:04:25;140720.44;;;-18.18
84287;BMP280;74445;55.252;61.092;2024-02-15T10:06:54;140683.44;;;-18.33
84287;BMP280;74445;55.252;61.092;2024-02-15T10:09:24;140679.88;;;-18.34
84287;BMP280;74445;55.252;61.092;2024-02-15T10:11:56;140682.28;;;-18.33
84287;BMP280;74445;55.252;61.092;2024-02-15T10:14:23;140660.78;;;-18.42
84287;BMP280;74445;55.252;61.092;2024-02-15T10:16:53;140616.59;;;-18.61
84287;BMP280;74445;55.252;61.092;2024-02-15T10:19:20;140570.09;;;-18.80
84287;BMP280;74445;55.252;61.092;2024-02-15T10:21:54;140577.25;;;-18.77
84287;BMP280;74445;55.252;61.092;2024-02-15T10:24:24;140540.25;;;-18.93
84287;BMP280;74445;55.252;61.092;2024-02-15T10:26:51;140541.47;;;-18.92
84287;BMP280;74445;55.252;61.092;2024-02-15T10:29:20;140508.06;;;-19.06
84287;BMP280;74445;55.252;61.092;2024-02-15T10:31:53;140508.06;;;-19.06
84287;BMP280;74445;55.252;61.092;2024-02-15T10:34:20;140472.31;;;-19.21
84287;BMP280;74445;55.252;61.092;2024-02-15T10:36:46;140472.31;;;-19.21
84287;BMP280;74445;55.252;61.092;2024-02-15T10:39:13;140442.53;;;-19.34
84287;BMP280;74445;55.252;61.092;2024-02-15T10:41:47;140403.16;;;-19.50
84287;BMP280;74445;55.252;61.092;2024-02-15T10:44:20;140400.78;;;-19.51
84287;BMP280;74445;55.252;61.092;2024-02-15T10:46:47;140367.38;;;-19.65
84287;BMP280;74445;55.252;61.092;2024-02-15T10:49:21;140356.69;;;-19.69
84287;BMP280;74445;55.252;61.092;2024-02-15T10:51:51;140375.75;;;-19.61
84287;BMP280;74445;55.252;61.092;2024-02-15T10:57:13;140323.31;;;-19.83
84287;BMP280;74445;55.252;61.092;2024-02-15T10:59:53;140309.00;;;-19.89
84287;BMP280;74445;55.252;61.092;2024-02-15T11:02:30;140312.56;;;-19.88
84287;BMP280;74445;55.252;61.092;2024-02-15T11:05:02;140280.44;;;-20.01
84287;BMP280;74445;55.252;61.092;2024-02-15T11:07:31;140274.47;;;-20.04
84287;BMP280;74445;55.252;61.092;2024-02-15T11:09:59;140248.25;;;-20.15
84287;BMP280;74445;55.252;61.092;2024-02-15T11:12:26;140267.31;;;-20.07
84287;BMP280;74445;55.252;61.092;2024-02-15T11:14:54;140253.00;;;-20.13
84287;BMP280;74445;55.252;61.092;2024-02-15T11:17:48;140230.41;;;-20.22
84287;BMP280;74445;55.252;61.092;2024-02-15T11:20:47;140213.72;;;-20.29
84287;BMP280;74445;55.252;61.092;2024-02-15T11:23:24;140185.13;;;-20.41
84287;BMP280;74445;55.252;61.092;2024-02-15T11:25:52;140195.81;;;-20.37
84287;BMP280;74445;55.252;61.092;2024-02-15T11:28:39;140176.81;;;-20.45
84287;BMP280;74445;55.252;61.092;2024-02-15T11:34:44;140150.59;;;-20.56
84287;BMP280;74445;55.252;61.092;2024-02-15T11:40:17;140095.81;;;-20.78
84287;BMP280;74445;55.252;61.092;2024-02-15T11:42:46;140073.22;;;-20.88
84287;BMP280;74445;55.252;61.092;2024-02-15T11:45:15;140075.59;;;-20.87
84287;BMP280;74445;55.252;61.092;2024-02-15T11:47:48;140054.16;;;-20.96
84287;BMP280;74445;55.252;61.092;2024-02-15T11:50:17;140044.66;;;-21.00
84287;BMP280;74445;55.252;61.092;2024-02-15T11:52:44;140030.34;;;-21.06
84287;BMP280;74445;55.252;61.092;2024-02-15T11:55:21;139997.03;;;-21.20
84287;BMP280;74445;55.252;61.092;2024-02-15T11:57:57;139983.97;;;-21.25
84287;BMP280;74445;55.252;61.092;2024-02-15T12:00:37;139992.25;;;-21.22
84287;BMP280;74445;55.252;61.092;2024-02-15T12:03:24;139969.69;;;-21.31
84287;BMP280;74445;55.252;61.092;2024-02-15T12:06:09;139930.38;;;-21.48
84287;BMP280;74445;55.252;61.092;2024-02-15T12:08:54;139925.63;;;-21.50
84287;BMP280;74445;55.252;61.092;2024-02-15T12:11:39;139905.41;;;-21.58
84287;BMP280;74445;55.252;61.092;2024-02-15T12:14:24;139910.19;;;-21.56
84287;BMP280;74445;55.252;61.092;2024-02-15T12:17:11;139874.53;;;-21.71
84287;BMP280;74445;55.252;61.092;2024-02-15T12:20:00;139861.47;;;-21.77
84287;BMP280;74445;55.252;61.092;2024-02-15T12:22:29;139836.47;;;-21.87
84287;BMP280;74445;55.252;61.092;2024-02-15T12:24:57;139797.22;;;-22.03
84287;BMP280;74445;55.252;61.092;2024-02-15T12:27:24;139779.38;;;-22.11
84287;BMP280;74445;55.252;61.092;2024-02-15T12:29:54;139778.22;;;-22.11
84287;BMP280;74445;55.252;61.092;2024-02-15T12:32:21;139772.25;;;-22.14
84287;BMP280;74445;55.252;61.092;2024-02-15T12:34:48;139761.56;;;-22.18
84287;BMP280;74445;55.252;61.092;2024-02-15T12:37:19;139766.31;;;-22.16
84287;BMP280;74445;55.252;61.092;2024-02-15T12:39:47;139747.28;;;-22.24
84287;BMP280;74445;55.252;61.092;2024-02-15T12:42:14;139715.22;;;-22.38
84287;BMP280;74445;55.252;61.092;2024-02-15T12:44:43;139724.69;;;-22.34
84287;BMP280;74445;55.252;61.092;2024-02-15T12:47:21;139704.53;;;-22.42
84287;BMP280;74445;55.252;61.092;2024-02-15T12:49:48;139690.28;;;-22.48
84287;BMP280;74445;55.252;61.092;2024-02-15T12:52:36;139658.16;;;-22.62
84287;BMP280;74445;55.252;61.092;2024-02-15T12:55:11;139639.13;;;-22.70
84287;BMP280;74445;55.252;61.092;2024-02-15T12:57:37;139620.13;;;-22.78
84287;BMP280;74445;55.252;61.092;2024-02-15T13:00:08;139611.81;;;-22.81
84287;BMP280;74445;55.252;61.092;2024-02-15T13:02:37;139613.00;;;-22.81
84287;BMP280;74445;55.252;61.092;2024-02-15T13:05:03;139610.63;;;-22.82
84287;BMP280;74445;55.252;61.092;2024-02-15T13:07:30;139602.31;;;-22.85
84287;BMP280;74445;55.252;61.092;2024-02-15T13:09:58;139592.81;;;-22.89
84287;BMP280;74445;55.252;61.092;2024-02-15T13:12:24;139564.31;;;-23.01
84287;BMP280;74445;55.252;61.092;2024-02-15T13:14:51;139540.59;;;-23.11
84287;BMP280;74445;55.252;61.092;2024-02-15T13:17:17;139527.53;;;-23.16
84287;BMP280;74445;55.252;61.092;2024-02-15T13:19:45;139513.28;;;-23.22
84287;BMP280;74445;55.252;61.092;2024-02-15T13:22:14;139507.31;;;-23.25
84287;BMP280;74445;55.252;61.092;2024-02-15T13:24:51;139499.03;;;-23.28
84287;BMP280;74445;55.252;61.092;2024-02-15T13:27:19;139485.94;;;-23.34
84287;BMP280;74445;55.252;61.092;2024-02-15T13:29:47;139469.31;;;-23.41
84287;BMP280;74445;55.252;61.092;2024-02-15T13:32:13;139466.94;;;-23.42
84287;BMP280;74445;55.252;61.092;2024-02-15T13:34:42;139456.28;;;-23.46
84287;BMP280;74445;55.252;61.092;2024-02-15T13:37:11;139447.94;;;-23.50
84287;BMP280;74445;55.252;61.092;2024-02-15T13:39:39;139458.66;;;-23.45
84287;BMP280;74445;55.252;61.092;2024-02-15T13:42:11;139451.53;;;-23.48
84287;BMP280;74445;55.252;61.092;2024-02-15T13:44:39;139453.91;;;-23.47
84287;BMP280;74445;55.252;61.092;2024-02-15T13:47:06;139465.78;;;-23.42
84287;BMP280;74445;55.252;61.092;2024-02-15T13:49:33;139466.94;;;-23.42
84287;BMP280;74445;55.252;61.092;2024-02-15T13:52:00;139462.19;;;-23.44
84287;BMP280;74445;55.252;61.092;2024-02-15T13:54:30;139462.19;;;-23.44
84287;BMP280;74445;55.252;61.092;2024-02-15T13:56:57;139446.78;;;-23.50
84287;BMP280;74445;55.252;61.092;2024-02-15T13:59:23;139453.91;;;-23.47